sensor_id;sensor_type;location;lat;lon;timestamp;P1;durP1;ratioP1;P2;durP2;ratioP2
17496;SDS011;62150;43.582;1.456;2023-03-14T08:37:41;20.17;;;3.83;;
17496;SDS011;62150;43.582;1.456;2023-03-14T08:40:08;20.97;;;4.60;;
17496;SDS011;62150;43.582;1.456;2023-03-14T08:42:37;16.90;;;3.90;;
17496;SDS011;62150;43.582;1.456;2023-03-14T08:45:05;18.60;;;3.97;;
17496;SDS011;62150;43.582;1.456;2023-03-14T08:47:34;14.13;;;3.53;;
17496;SDS011;62150;43.582;1.456;2023-03-14T08:50:02;14.53;;;3.70;;
17496;SDS011;62150;43.582;1.456;2023-03-14T08:52:30;16.17;;;3.30;;
17496;SDS011;62150;43.582;1.456;2023-03-14T08:55:00;19.23;;;3.87;;
17496;SDS011;62150;43.582;1.456;2023-03-14T08:57:27;17.90;;;4.10;;
17496;SDS011;62150;43.582;1.456;2023-03-14T08:59:55;13.33;;;2.90;;
17496;SDS011;62150;43.582;1.456;2023-03-14T09:02:23;14.40;;;3.13;;
17496;SDS011;62150;43.582;1.456;2023-03-14T09:04:52;17.27;;;3.67;;
17496;SDS011;62150;43.582;1.456;2023-03-14T09:07:20;17.90;;;3.87;;
17496;SDS011;62150;43.582;1.456;2023-03-14T09:09:47;15.20;;;3.30;;
17496;SDS011;62150;43.582;1.456;2023-03-14T09:12:16;12.93;;;3.00;;
17496;SDS011;62150;43.582;1.456;2023-03-14T09:14:44;16.53;;;3.60;;
17496;SDS011;62150;43.582;1.456;2023-03-14T09:17:11;14.00;;;3.10;;
17496;SDS011;62150;43.582;1.456;2023-03-14T09:19:39;16.33;;;3.60;;
17496;SDS011;62150;43.582;1.456;2023-03-14T09:22:06;14.40;;;3.13;;
17496;SDS011;62150;43.582;1.456;2023-03-14T09:24:33;8.13;;;2.17;;
17496;SDS011;62150;43.582;1.456;2023-03-14T09:27:01;10.60;;;2.57;;
17496;SDS011;62150;43.582;1.456;2023-03-14T09:29:30;8.23;;;2.13;;
17496;SDS011;62150;43.582;1.456;2023-03-14T09:31:58;8.33;;;2.13;;
17496;SDS011;62150;43.582;1.456;2023-03-14T09:34:26;7.90;;;1.90;;
17496;SDS011;62150;43.582;1.456;2023-03-14T09:36:53;9.60;;;1.70;;
17496;SDS011;62150;43.582;1.456;2023-03-14T09:39:22;5.83;;;2.10;;
17496;SDS011;62150;43.582;1.456;2023-03-14T09:41:50;11.67;;;2.30;;
17496;SDS011;62150;43.582;1.456;2023-03-14T09:44:21;6.10;;;1.70;;
17496;SDS011;62150;43.582;1.456;2023-03-14T09:46:53;7.40;;;1.83;;
17496;SDS011;62150;43.582;1.456;2023-03-14T09:49:24;8.90;;;1.87;;
17496;SDS011;62150;43.582;1.456;2023-03-14T09:51:54;8.70;;;2.00;;
17496;SDS011;62150;43.582;1.456;2023-03-14T09:54:30;7.67;;;2.10;;
17496;SDS011;62150;43.582;1.456;2023-03-14T09:57:01;10.40;;;2.20;;
17496;SDS011;62150;43.582;1.456;2023-03-14T09:59:30;7.23;;;2.07;;
17496;SDS011;62150;43.582;1.456;2023-03-14T10:02:00;9.50;;;2.27;;
17496;SDS011;62150;43.582;1.456;2023-03-14T10:04:37;12.37;;;3.73;;
17496;SDS011;62150;43.582;1.456;2023-03-14T10:07:09;13.27;;;3.07;;
17496;SDS011;62150;43.582;1.456;2023-03-14T10:09:42;9.60;;;2.50;;
17496;SDS011;62150;43.582;1.456;2023-03-14T10:12:11;10.87;;;2.43;;
17496;SDS011;62150;43.582;1.456;2023-03-14T10:14:44;7.90;;;2.33;;
17496;SDS011;62150;43.582;1.456;2023-03-14T10:17:15;12.17;;;2.83;;
17496;SDS011;62150;43.582;1.456;2023-03-14T10:19:54;14.03;;;2.67;;
17496;SDS011;62150;43.582;1.456;2023-03-14T10:22:23;8.50;;;2.30;;
17496;SDS011;62150;43.582;1.456;2023-03-14T10:24:53;10.60;;;2.30;;
17496;SDS011;62150;43.582;1.456;2023-03-14T10:27:27;9.30;;;2.50;;
17496;SDS011;62150;43.582;1.456;2023-03-14T10:29:56;13.57;;;2.33;;
17496;SDS011;62150;43.582;1.456;2023-03-14T10:32:31;10.10;;;2.80;;
17496;SDS011;62150;43.582;1.456;2023-03-14T10:35:08;9.67;;;2.40;;
17496;SDS011;62150;43.582;1.456;2023-03-14T10:37:50;9.97;;;2.33;;
17496;SDS011;62150;43.582;1.456;2023-03-14T10:40:22;12.90;;;2.63;;
17496;SDS011;62150;43.582;1.456;2023-03-14T10:42:54;11.27;;;2.37;;
17496;SDS011;62150;43.582;1.456;2023-03-14T10:45:33;9.93;;;2.37;;
17496;SDS011;62150;43.582;1.456;2023-03-14T10:48:16;12.97;;;2.30;;
17496;SDS011;62150;43.582;1.456;2023-03-14T10:50:50;9.07;;;2.30;;
17496;SDS011;62150;43.582;1.456;2023-03-14T10:53:21;10.97;;;2.40;;
17496;SDS011;62150;43.582;1.456;2023-03-14T10:55:50;8.03;;;2.13;;
17496;SDS011;62150;43.582;1.456;2023-03-14T10:58:30;9.40;;;2.23;;
17496;SDS011;62150;43.582;1.456;2023-03-14T11:01:12;9.10;;;2.17;;
17496;SDS011;62150;43.582;1.456;2023-03-14T11:03:54;9.80;;;2.50;;
17496;SDS011;62150;43.582;1.456;2023-03-14T11:06:26;7.60;;;2.07;;
17496;SDS011;62150;43.582;1.456;2023-03-14T11:09:02;5.17;;;1.63;;
17496;SDS011;62150;43.582;1.456;2023-03-14T11:11:36;5.50;;;1.60;;
17496;SDS011;62150;43.582;1.456;2023-03-14T11:14:13;4.13;;;1.50;;
17496;SDS011;62150;43.582;1.456;2023-03-14T11:16:51;7.53;;;1.70;;
17496;SDS011;62150;43.582;1.456;2023-03-14T11:19:34;6.23;;;1.80;;
17496;SDS011;62150;43.582;1.456;2023-03-14T11:22:13;4.80;;;1.77;;
17496;SDS011;62150;43.582;1.456;2023-03-14T11:24:55;5.30;;;1.70;;
17496;SDS011;62150;43.582;1.456;2023-03-14T11:27:41;6.00;;;1.80;;
17496;SDS011;62150;43.582;1.456;2023-03-14T11:30:18;7.33;;;1.63;;
17496;SDS011;62150;43.582;1.456;2023-03-14T11:32:50;6.90;;;2.07;;
17496;SDS011;62150;43.582;1.456;2023-03-14T11:35:24;6.70;;;1.90;;
17496;SDS011;62150;43.582;1.456;2023-03-14T11:37:57;5.60;;;1.80;;
17496;SDS011;62150;43.582;1.456;2023-03-14T11:40:34;6.50;;;1.70;;
17496;SDS011;62150;43.582;1.456;2023-03-14T11:43:06;7.33;;;1.80;;
17496;SDS011;62150;43.582;1.456;2023-03-14T11:45:41;6.10;;;1.90;;
17496;SDS011;62150;43.582;1.456;2023-03-14T11:48:25;8.27;;;1.73;;
17496;SDS011;62150;43.582;1.456;2023-03-14T11:51:04;4.90;;;1.60;;
17496;SDS011;62150;43.582;1.456;2023-03-14T11:53:39;4.80;;;1.50;;
17496;SDS011;62150;43.582;1.456;2023-03-14T11:56:16;3.50;;;1.50;;
17496;SDS011;62150;43.582;1.456;2023-03-14T11:58:51;6.23;;;1.40;;
17496;SDS011;62150;43.582;1.456;2023-03-14T12:01:24;4.33;;;1.40;;
17496;SDS011;62150;43.582;1.456;2023-03-14T12:04:02;5.03;;;1.67;;
17496;SDS011;62150;43.582;1.456;2023-03-14T12:06:44;3.90;;;1.37;;
17496;SDS011;62150;43.582;1.456;2023-03-14T12:09:14;3.87;;;1.23;;
17496;SDS011;62150;43.582;1.456;2023-03-14T12:11:44;3.07;;;1.30;;
17496;SDS011;62150;43.582;1.456;2023-03-14T12:14:19;4.83;;;1.53;;
17496;SDS011;62150;43.582;1.456;2023-03-14T12:16:48;5.13;;;1.40;;
17496;SDS011;62150;43.582;1.456;2023-03-14T12:22:12;4.30;;;1.40;;
17496;SDS011;62150;43.582;1.456;2023-03-14T12:25:03;4.77;;;1.60;;
17496;SDS011;62150;43.582;1.456;2023-03-14T12:30:39;5.17;;;1.60;;
17496;SDS011;62150;43.582;1.456;2023-03-14T12:33:11;5.97;;;1.50;;
17496;SDS011;62150;43.582;1.456;2023-03-14T12:35:48;4.43;;;1.50;;
17496;SDS011;62150;43.582;1.456;2023-03-14T12:38:18;4.83;;;1.43;;
17496;SDS011;62150;43.582;1.456;2023-03-14T12:40:56;4.03;;;1.77;;
17496;SDS011;62150;43.582;1.456;2023-03-14T12:43:28;5.33;;;1.60;;
17496;SDS011;62150;43.582;1.456;2023-03-14T12:46:08;7.30;;;1.60;;
17496;SDS011;62150;43.582;1.456;2023-03-14T12:48:46;4.73;;;1.60;;
17496;SDS011;62150;43.582;1.456;2023-03-14T12:51:16;6.83;;;2.07;;
17496;SDS011;62150;43.582;1.456;2023-03-14T12:53:55;3.87;;;1.53;;
17496;SDS011;62150;43.582;1.456;2023-03-14T12:56:39;5.17;;;1.60;;
17496;SDS011;62150;43.582;1.456;2023-03-14T12:59:30;6.40;;;1.93;;
17496;SDS011;62150;43.582;1.456;2023-03-14T13:01:59;8.23;;;2.00;;
17496;SDS011;62150;43.582;1.456;2023-03-14T13:04:43;6.13;;;1.63;;
17496;SDS011;62150;43.582;1.456;2023-03-14T13:07:13;5.13;;;1.70;;
17496;SDS011;62150;43.582;1.456;2023-03-14T13:09:56;5.40;;;2.00;;
17496;SDS011;62150;43.582;1.456;2023-03-14T13:12:44;5.70;;;1.60;;
17496;SDS011;62150;43.582;1.456;2023-03-14T13:15:19;4.30;;;1.37;;
17496;SDS011;62150;43.582;1.456;2023-03-14T13:17:53;6.40;;;1.50;;
17496;SDS011;62150;43.582;1.456;2023-03-14T13:20:28;7.97;;;1.90;;
17496;SDS011;62150;43.582;1.456;2023-03-14T13:22:58;7.53;;;1.93;;
17496;SDS011;62150;43.582;1.456;2023-03-14T13:25:31;4.10;;;1.53;;
17496;SDS011;62150;43.582;1.456;2023-03-14T13:28:00;5.47;;;1.63;;
17496;SDS011;62150;43.582;1.456;2023-03-14T13:30:29;5.40;;;1.50;;
17496;SDS011;62150;43.582;1.456;2023-03-14T13:33:05;5.77;;;1.57;;
17496;SDS011;62150;43.582;1.456;2023-03-14T13:35:38;9.83;;;2.43;;
17496;SDS011;62150;43.582;1.456;2023-03-14T13:38:13;8.00;;;1.50;;
17496;SDS011;62150;43.582;1.456;2023-03-14T13:40:45;6.33;;;1.70;;
17496;SDS011;62150;43.582;1.456;2023-03-14T13:43:16;6.20;;;1.60;;
17496;SDS011;62150;43.582;1.456;2023-03-14T13:45:48;5.83;;;1.70;;
17496;SDS011;62150;43.582;1.456;2023-03-14T13:48:18;5.77;;;1.50;;
17496;SDS011;62150;43.582;1.456;2023-03-14T13:50:54;4.43;;;1.80;;
17496;SDS011;62150;43.582;1.456;2023-03-14T13:53:25;2.87;;;1.40;;
17496;SDS011;62150;43.582;1.456;2023-03-14T13:55:53;3.97;;;1.40;;
17496;SDS011;62150;43.582;1.456;2023-03-14T13:58:25;2.00;;;0.87;;
17496;SDS011;62150;43.582;1.456;2023-03-14T14:01:04;1.67;;;1.00;;
17496;SDS011;62150;43.582;1.456;2023-03-14T14:03:37;2.47;;;0.90;;
17496;SDS011;62150;43.582;1.456;2023-03-14T14:06:08;1.33;;;0.80;;
17496;SDS011;62150;43.582;1.456;2023-03-14T14:08:42;2.43;;;0.90;;
17496;SDS011;62150;43.582;1.456;2023-03-14T14:11:14;2.33;;;0.90;;
17496;SDS011;62150;43.582;1.456;2023-03-14T14:13:48;0.83;;;0.83;;
17496;SDS011;62150;43.582;1.456;2023-03-14T14:16:16;0.80;;;0.80;;
17496;SDS011;62150;43.582;1.456;2023-03-14T14:18:50;2.70;;;1.00;;
17496;SDS011;62150;43.582;1.456;2023-03-14T14:21:19;1.30;;;1.10;;
17496;SDS011;62150;43.582;1.456;2023-03-14T14:23:47;1.70;;;1.00;;
17496;SDS011;62150;43.582;1.456;2023-03-14T14:26:17;1.37;;;1.27;;
17496;SDS011;62150;43.582;1.456;2023-03-14T14:28:46;1.97;;;1.07;;
17496;SDS011;62150;43.582;1.456;2023-03-14T14:31:24;2.70;;;1.03;;
17496;SDS011;62150;43.582;1.456;2023-03-14T14:33:55;3.30;;;1.10;;
17496;SDS011;62150;43.582;1.456;2023-03-14T14:36:24;2.57;;;1.00;;
17496;SDS011;62150;43.582;1.456;2023-03-14T14:38:57;3.07;;;1.20;;
17496;SDS011;62150;43.582;1.456;2023-03-14T14:41:28;2.63;;;1.43;;
17496;SDS011;62150;43.582;1.456;2023-03-14T14:43:56;1.67;;;1.30;;
17496;SDS011;62150;43.582;1.456;2023-03-14T14:46:26;2.33;;;1.20;;
17496;SDS011;62150;43.582;1.456;2023-03-14T14:48:56;3.00;;;1.20;;
17496;SDS011;62150;43.582;1.456;2023-03-14T14:51:31;4.93;;;1.20;;
17496;SDS011;62150;43.582;1.456;2023-03-14T14:54:04;4.37;;;1.40;;
17496;SDS011;62150;43.582;1.456;2023-03-14T14:56:39;4.63;;;1.37;;
17496;SDS011;62150;43.582;1.456;2023-03-14T14:59:18;4.50;;;1.40;;
17496;SDS011;62150;43.582;1.456;2023-03-14T15:01:49;5.70;;;1.83;;
17496;SDS011;62150;43.582;1.456;2023-03-14T15:04:21;5.23;;;1.40;;
17496;SDS011;62150;43.582;1.456;2023-03-14T15:06:49;4.00;;;1.27;;
17496;SDS011;62150;43.582;1.456;2023-03-14T15:09:17;4.03;;;1.40;;
17496;SDS011;62150;43.582;1.456;2023-03-14T15:11:47;3.07;;;1.40;;
17496;SDS011;62150;43.582;1.456;2023-03-14T15:14:15;3.80;;;1.57;;
17496;SDS011;62150;43.582;1.456;2023-03-14T15:16:43;4.53;;;1.30;;
17496;SDS011;62150;43.582;1.456;2023-03-14T15:19:11;3.67;;;1.60;;
17496;SDS011;62150;43.582;1.456;2023-03-14T15:21:43;4.07;;;1.70;;
17496;SDS011;62150;43.582;1.456;2023-03-14T15:24:10;5.27;;;1.50;;
17496;SDS011;62150;43.582;1.456;2023-03-14T15:26:38;3.97;;;1.70;;
17496;SDS011;62150;43.582;1.456;2023-03-14T15:29:08;4.33;;;1.90;;
17496;SDS011;62150;43.582;1.456;2023-03-14T15:31:37;5.23;;;1.53;;
17496;SDS011;62150;43.582;1.456;2023-03-14T15:34:05;5.50;;;1.70;;
17496;SDS011;62150;43.582;1.456;2023-03-14T15:36:33;3.93;;;1.50;;
17496;SDS011;62150;43.582;1.456;2023-03-14T15:39:02;4.13;;;1.50;;
17496;SDS011;62150;43.582;1.456;2023-03-14T15:41:30;4.63;;;1.40;;
17496;SDS011;62150;43.582;1.456;2023-03-14T15:43:58;2.57;;;1.20;;
17496;SDS011;62150;43.582;1.456;2023-03-14T15:46:27;2.00;;;1.27;;
17496;SDS011;62150;43.582;1.456;2023-03-14T15:48:55;2.77;;;1.10;;
17496;SDS011;62150;43.582;1.456;2023-03-14T15:51:22;3.97;;;1.20;;
17496;SDS011;62150;43.582;1.456;2023-03-14T15:53:50;1.43;;;1.00;;
17496;SDS011;62150;43.582;1.456;2023-03-14T15:56:18;3.67;;;1.30;;
17496;SDS011;62150;43.582;1.456;2023-03-14T15:58:49;3.03;;;1.20;;
17496;SDS011;62150;43.582;1.456;2023-03-14T16:01:16;2.20;;;0.90;;
17496;SDS011;62150;43.582;1.456;2023-03-14T16:03:46;2.60;;;1.23;;
17496;SDS011;62150;43.582;1.456;2023-03-14T16:06:14;3.20;;;1.30;;
17496;SDS011;62150;43.582;1.456;2023-03-14T16:08:42;3.50;;;1.33;;
17496;SDS011;62150;43.582;1.456;2023-03-14T16:11:09;5.03;;;1.40;;
17496;SDS011;62150;43.582;1.456;2023-03-14T16:13:39;7.20;;;1.23;;
17496;SDS011;62150;43.582;1.456;2023-03-14T16:16:07;2.07;;;1.27;;
17496;SDS011;62150;43.582;1.456;2023-03-14T16:18:37;4.13;;;1.50;;
17496;SDS011;62150;43.582;1.456;2023-03-14T16:21:06;3.43;;;1.50;;
17496;SDS011;62150;43.582;1.456;2023-03-14T16:23:37;4.10;;;1.70;;
17496;SDS011;62150;43.582;1.456;2023-03-14T16:26:05;6.30;;;1.67;;
17496;SDS011;62150;43.582;1.456;2023-03-14T16:28:34;5.27;;;1.57;;
17496;SDS011;62150;43.582;1.456;2023-03-14T16:31:03;4.70;;;1.60;;
17496;SDS011;62150;43.582;1.456;2023-03-14T16:33:32;4.40;;;1.40;;
17496;SDS011;62150;43.582;1.456;2023-03-14T16:36:01;6.40;;;1.60;;
17496;SDS011;62150;43.582;1.456;2023-03-14T16:38:34;3.27;;;1.40;;
17496;SDS011;62150;43.582;1.456;2023-03-14T16:41:02;6.63;;;1.97;;
17496;SDS011;62150;43.582;1.456;2023-03-14T16:43:32;6.97;;;1.80;;
17496;SDS011;62150;43.582;1.456;2023-03-14T16:46:01;6.60;;;1.90;;
17496;SDS011;62150;43.582;1.456;2023-03-14T16:48:30;5.07;;;1.77;;
17496;SDS011;62150;43.582;1.456;2023-03-14T16:50:58;5.93;;;2.20;;
17496;SDS011;62150;43.582;1.456;2023-03-14T16:53:25;4.30;;;1.60;;
17496;SDS011;62150;43.582;1.456;2023-03-14T16:55:55;7.07;;;1.93;;
17496;SDS011;62150;43.582;1.456;2023-03-14T16:58:24;8.00;;;1.80;;
17496;SDS011;62150;43.582;1.456;2023-03-14T17:00:54;5.93;;;1.70;;
17496;SDS011;62150;43.582;1.456;2023-03-14T17:03:21;9.57;;;2.00;;
17496;SDS011;62150;43.582;1.456;2023-03-14T17:05:51;5.90;;;1.77;;
17496;SDS011;62150;43.582;1.456;2023-03-14T17:08:19;7.53;;;1.73;;
17496;SDS011;62150;43.582;1.456;2023-03-14T17:10:47;4.47;;;1.80;;
17496;SDS011;62150;43.582;1.456;2023-03-14T17:13:16;5.83;;;1.70;;
17496;SDS011;62150;43.582;1.456;2023-03-14T17:15:51;5.23;;;1.60;;
17496;SDS011;62150;43.582;1.456;2023-03-14T17:18:20;7.43;;;1.80;;
17496;SDS011;62150;43.582;1.456;2023-03-14T17:20:47;5.20;;;1.80;;
17496;SDS011;62150;43.582;1.456;2023-03-14T17:23:16;7.63;;;1.90;;
17496;SDS011;62150;43.582;1.456;2023-03-14T17:25:45;6.63;;;2.00;;
17496;SDS011;62150;43.582;1.456;2023-03-14T17:28:14;7.63;;;2.30;;
17496;SDS011;62150;43.582;1.456;2023-03-14T17:30:43;6.90;;;1.83;;
17496;SDS011;62150;43.582;1.456;2023-03-14T17:33:11;7.50;;;2.07;;
17496;SDS011;62150;43.582;1.456;2023-03-14T17:35:39;5.83;;;2.00;;
17496;SDS011;62150;43.582;1.456;2023-03-14T17:38:08;7.43;;;1.90;;
17496;SDS011;62150;43.582;1.456;2023-03-14T17:40:36;7.37;;;1.90;;
17496;SDS011;62150;43.582;1.456;2023-03-14T17:43:03;8.67;;;2.00;;
17496;SDS011;62150;43.582;1.456;2023-03-14T17:45:32;8.73;;;1.87;;
17496;SDS011;62150;43.582;1.456;2023-03-14T17:48:00;6.17;;;1.90;;
17496;SDS011;62150;43.582;1.456;2023-03-14T17:50:28;8.60;;;2.50;;
17496;SDS011;62150;43.582;1.456;2023-03-14T17:52:55;10.87;;;2.20;;
17496;SDS011;62150;43.582;1.456;2023-03-14T17:55:23;6.30;;;1.93;;
17496;SDS011;62150;43.582;1.456;2023-03-14T17:57:51;11.50;;;2.13;;
17496;SDS011;62150;43.582;1.456;2023-03-14T18:00:18;6.77;;;1.90;;
17496;SDS011;62150;43.582;1.456;2023-03-14T18:02:49;6.23;;;1.83;;
17496;SDS011;62150;43.582;1.456;2023-03-14T18:05:17;6.57;;;1.67;;
17496;SDS011;62150;43.582;1.456;2023-03-14T18:07:44;6.63;;;1.90;;
17496;SDS011;62150;43.582;1.456;2023-03-14T18:10:12;6.40;;;1.90;;
17496;SDS011;62150;43.582;1.456;2023-03-14T18:12:41;6.33;;;1.87;;
17496;SDS011;62150;43.582;1.456;2023-03-14T18:15:09;9.00;;;2.00;;
17496;SDS011;62150;43.582;1.456;2023-03-14T18:17:38;5.50;;;1.93;;
17496;SDS011;62150;43.582;1.456;2023-03-14T18:20:08;6.87;;;1.90;;
17496;SDS011;62150;43.582;1.456;2023-03-14T18:22:37;6.23;;;2.07;;
17496;SDS011;62150;43.582;1.456;2023-03-14T18:25:05;7.63;;;2.20;;
17496;SDS011;62150;43.582;1.456;2023-03-14T18:27:33;6.10;;;2.07;;
17496;SDS011;62150;43.582;1.456;2023-03-14T18:30:01;8.73;;;2.30;;
17496;SDS011;62150;43.582;1.456;2023-03-14T18:32:29;8.93;;;2.37;;
17496;SDS011;62150;43.582;1.456;2023-03-14T18:34:56;9.67;;;2.67;;
17496;SDS011;62150;43.582;1.456;2023-03-14T18:37:25;6.87;;;1.93;;
17496;SDS011;62150;43.582;1.456;2023-03-14T18:39:53;6.03;;;2.17;;
17496;SDS011;62150;43.582;1.456;2023-03-14T18:42:20;7.23;;;2.00;;
17496;SDS011;62150;43.582;1.456;2023-03-14T18:44:47;7.40;;;2.20;;
17496;SDS011;62150;43.582;1.456;2023-03-14T18:47:15;10.67;;;2.53;;
17496;SDS011;62150;43.582;1.456;2023-03-14T18:49:43;9.27;;;2.13;;
17496;SDS011;62150;43.582;1.456;2023-03-14T18:52:10;7.23;;;2.13;;
17496;SDS011;62150;43.582;1.456;2023-03-14T18:54:40;7.60;;;2.03;;
17496;SDS011;62150;43.582;1.456;2023-03-14T18:57:07;5.90;;;1.97;;
17496;SDS011;62150;43.582;1.456;2023-03-14T18:59:35;8.53;;;2.30;;
17496;SDS011;62150;43.582;1.456;2023-03-14T19:02:03;5.93;;;2.03;;
17496;SDS011;62150;43.582;1.456;2023-03-14T19:04:30;4.40;;;2.00;;
17496;SDS011;62150;43.582;1.456;2023-03-14T19:06:58;7.57;;;2.20;;
17496;SDS011;62150;43.582;1.456;2023-03-14T19:09:26;7.20;;;2.10;;
17496;SDS011;62150;43.582;1.456;2023-03-14T19:11:55;7.37;;;2.60;;
17496;SDS011;62150;43.582;1.456;2023-03-14T19:14:22;6.70;;;2.20;;
17496;SDS011;62150;43.582;1.456;2023-03-14T19:16:50;9.43;;;1.97;;
17496;SDS011;62150;43.582;1.456;2023-03-14T19:19:31;6.63;;;2.20;;
17496;SDS011;62150;43.582;1.456;2023-03-14T19:21:58;5.93;;;2.10;;
17496;SDS011;62150;43.582;1.456;2023-03-14T19:24:26;7.03;;;2.10;;
17496;SDS011;62150;43.582;1.456;2023-03-14T19:26:55;8.30;;;2.40;;
17496;SDS011;62150;43.582;1.456;2023-03-14T19:29:22;8.50;;;2.30;;
17496;SDS011;62150;43.582;1.456;2023-03-14T19:31:50;6.87;;;2.17;;
17496;SDS011;62150;43.582;1.456;2023-03-14T19:34:18;7.17;;;2.13;;
17496;SDS011;62150;43.582;1.456;2023-03-14T19:36:46;5.97;;;2.03;;
17496;SDS011;62150;43.582;1.456;2023-03-14T19:39:14;9.93;;;2.27;;
17496;SDS011;62150;43.582;1.456;2023-03-14T19:41:42;10.20;;;2.60;;
17496;SDS011;62150;43.582;1.456;2023-03-14T19:44:11;10.23;;;2.80;;
17496;SDS011;62150;43.582;1.456;2023-03-14T19:46:38;10.53;;;2.60;;
17496;SDS011;62150;43.582;1.456;2023-03-14T19:49:06;9.37;;;2.30;;
17496;SDS011;62150;43.582;1.456;2023-03-14T19:51:33;10.37;;;3.10;;
17496;SDS011;62150;43.582;1.456;2023-03-14T19:54:01;10.93;;;2.40;;
17496;SDS011;62150;43.582;1.456;2023-03-14T19:56:29;10.90;;;2.63;;
17496;SDS011;62150;43.582;1.456;2023-03-14T19:58:57;12.10;;;2.87;;
17496;SDS011;62150;43.582;1.456;2023-03-14T20:01:28;12.63;;;2.90;;
17496;SDS011;62150;43.582;1.456;2023-03-14T20:03:56;8.13;;;2.90;;
17496;SDS011;62150;43.582;1.456;2023-03-14T20:06:23;10.00;;;2.60;;
17496;SDS011;62150;43.582;1.456;2023-03-14T20:08:54;14.23;;;3.47;;
17496;SDS011;62150;43.582;1.456;2023-03-14T20:11:22;9.77;;;3.07;;
17496;SDS011;62150;43.582;1.456;2023-03-14T20:13:50;9.60;;;2.60;;
17496;SDS011;62150;43.582;1.456;2023-03-14T20:16:17;11.80;;;2.90;;
17496;SDS011;62150;43.582;1.456;2023-03-14T20:18:46;12.73;;;2.90;;
17496;SDS011;62150;43.582;1.456;2023-03-14T20:21:14;10.10;;;2.57;;
17496;SDS011;62150;43.582;1.456;2023-03-14T20:23:41;11.57;;;2.60;;
17496;SDS011;62150;43.582;1.456;2023-03-14T20:26:09;10.80;;;2.53;;
17496;SDS011;62150;43.582;1.456;2023-03-14T20:28:37;14.60;;;2.80;;
17496;SDS011;62150;43.582;1.456;2023-03-14T20:31:06;8.30;;;2.40;;
17496;SDS011;62150;43.582;1.456;2023-03-14T20:33:34;9.50;;;2.40;;
17496;SDS011;62150;43.582;1.456;2023-03-14T20:36:03;10.40;;;2.60;;
17496;SDS011;62150;43.582;1.456;2023-03-14T20:38:31;14.30;;;3.20;;
17496;SDS011;62150;43.582;1.456;2023-03-14T20:41:00;12.40;;;3.30;;
17496;SDS011;62150;43.582;1.456;2023-03-14T20:43:29;9.70;;;2.70;;
17496;SDS011;62150;43.582;1.456;2023-03-14T20:45:58;10.40;;;3.23;;
17496;SDS011;62150;43.582;1.456;2023-03-14T20:48:27;10.67;;;2.70;;
17496;SDS011;62150;43.582;1.456;2023-03-14T20:50:56;10.57;;;2.90;;
17496;SDS011;62150;43.582;1.456;2023-03-14T20:53:25;8.37;;;2.60;;
17496;SDS011;62150;43.582;1.456;2023-03-14T20:55:53;10.67;;;2.87;;
17496;SDS011;62150;43.582;1.456;2023-03-14T20:58:22;11.53;;;2.60;;
17496;SDS011;62150;43.582;1.456;2023-03-14T21:00:50;10.10;;;2.60;;
17496;SDS011;62150;43.582;1.456;2023-03-14T21:03:20;8.17;;;2.47;;
17496;SDS011;62150;43.582;1.456;2023-03-14T21:05:48;8.50;;;2.40;;
17496;SDS011;62150;43.582;1.456;2023-03-14T21:08:17;9.97;;;2.60;;
17496;SDS011;62150;43.582;1.456;2023-03-14T21:10:47;8.23;;;2.47;;
17496;SDS011;62150;43.582;1.456;2023-03-14T21:13:16;6.13;;;1.87;;
17496;SDS011;62150;43.582;1.456;2023-03-14T21:15:44;10.30;;;2.80;;
17496;SDS011;62150;43.582;1.456;2023-03-14T21:18:11;7.50;;;1.90;;
17496;SDS011;62150;43.582;1.456;2023-03-14T21:20:39;7.70;;;2.40;;
17496;SDS011;62150;43.582;1.456;2023-03-14T21:23:08;7.97;;;2.07;;
17496;SDS011;62150;43.582;1.456;2023-03-14T21:25:37;10.30;;;2.30;;
17496;SDS011;62150;43.582;1.456;2023-03-14T21:28:08;9.33;;;2.10;;
17496;SDS011;62150;43.582;1.456;2023-03-14T21:30:36;8.13;;;2.30;;
17496;SDS011;62150;43.582;1.456;2023-03-14T21:33:04;8.23;;;2.30;;
17496;SDS011;62150;43.582;1.456;2023-03-14T21:35:31;8.37;;;2.23;;
17496;SDS011;62150;43.582;1.456;2023-03-14T21:37:59;8.10;;;2.10;;
17496;SDS011;62150;43.582;1.456;2023-03-14T21:40:26;7.10;;;2.27;;
17496;SDS011;62150;43.582;1.456;2023-03-14T21:42:54;7.13;;;2.33;;
17496;SDS011;62150;43.582;1.456;2023-03-14T21:45:23;7.97;;;2.10;;
17496;SDS011;62150;43.582;1.456;2023-03-14T21:47:52;7.80;;;2.00;;
17496;SDS011;62150;43.582;1.456;2023-03-14T21:50:20;9.83;;;2.30;;
